• Join FlightAware (Why Join?)
  • Login
  • US Flag 
07:20PM EDT


 

Airport Tracker/Info


-or-


 

Live Flight TrackerFlight Track Log ✈ SWA3175 ✈ 05-Jan-2013 ✈ KBWI - KTPA

Flight Track Log - Related Links

Times and Time Zones

All times are in EST time to prevent confusion due to time zone crossing. See the SWA3175 flight status page for this flight to view local times or setup timezone preferences in your user account.

Time Position Orientation Groundspeed Altitude Reporting Facility
EST Latitude Longitude Course Direction KTS MPH feet Rate Location/Type
11:53AM 39.1833 -76.7500 284° West 202 232 2,800  Level Potomac TRACON
11:54AM 39.2000 -76.8333 284° West 239 275 5,800 3,120 Climbing Potomac TRACON
11:55AM 39.2167 -76.9167 284° West 259 298 8,800 2,700 Climbing Potomac TRACON
11:56AM 39.2167 -77.0167 270° West 274 315 11,000 1,920 Climbing Potomac TRACON
11:57AM 39.1833 -77.1167 247° West 349 402 12,700 2,040 Climbing Potomac TRACON
11:58AM 39.1000 -77.1667 205° Southwest 360 414 15,200 2,160 Climbing Potomac TRACON
12:00PM 38.9203 -77.2778 206° Southwest 386 444 19,100 1,980 Climbing Washington Center
12:01PM 38.8217 -77.3317 203° Southwest 381 438 21,000 1,680 Climbing Washington Center
12:02PM 38.7250 -77.3853 203° Southwest 381 438 22,500 1,380 Climbing Washington Center
12:03PM 38.6239 -77.4411 203° Southwest 381 438 23,800 1,200 Climbing Washington Center
12:04PM 38.5289 -77.5183 212° Southwest 387 445 25,000 1,680 Climbing Washington Center
12:05PM 38.4544 -77.6147 225° Southwest 386 444 27,300 1,980 Climbing Washington Center
12:06PM 38.3819 -77.7028 224° Southwest 386 444 29,100 1,620 Climbing Washington Center
12:07PM 38.3094 -77.7881 223° Southwest 368 423 30,500 1,620 Climbing Washington Center
12:08PM 38.2433 -77.8706 224° Southwest 352 405 32,300 1,620 Climbing Washington Center
12:09PM 38.1792 -77.9506 224° Southwest 340 391 33,800 840 Climbing Washington Center
12:10PM 38.1153 -78.0250 223° Southwest 321 369 34,000 60 Climbing Washington Center
12:11PM 38.0553 -78.1022 225° Southwest 321 369 34,000  Level Washington Center
12:12PM 37.9953 -78.1714 222° Southwest 321 369 34,000  Level Washington Center
12:13PM 37.9228 -78.2453 219° Southwest 314 361 34,000  Level Washington Center
12:14PM 37.8506 -78.3136 217° Southwest 326 375 34,000  Level Washington Center
12:15PM 37.7800 -78.3822 218° Southwest 331 381 34,000  Level Washington Center
12:16PM 37.7075 -78.4478 216° Southwest 331 381 34,000  Level Washington Center
12:17PM 37.6414 -78.5108 217° Southwest 331 381 34,000  Level Washington Center
12:18PM 37.5667 -78.5786 216° Southwest 331 381 34,000  Level Washington Center
12:19PM 37.4942 -78.6464 217° Southwest 331 381 34,000  Level Washington Center
12:20PM 37.4194 -78.7142 216° Southwest 331 381 34,000  Level Washington Center
12:21PM 37.3381 -78.7917 217° Southwest 331 381 34,000  Level Washington Center
12:22PM 37.2653 -78.8592 216° Southwest 331 381 34,000  Level Washington Center
12:23PM 37.1925 -78.9264 216° Southwest 331 381 34,000  Level Washington Center
12:24PM 37.1197 -78.9936 216° Southwest 331 381 34,000  Level Washington Center
12:25PM 37.0467 -79.0608 216° Southwest 331 381 34,000  Level Washington Center
12:26PM 36.9758 -79.1303 218° Southwest 331 381 34,000  Level Washington Center
12:27PM 36.9075 -79.1894 215° Southwest 331 381 34,000  Level Washington Center
12:28PM 36.8344 -79.2589 217° Southwest 331 381 34,000  Level Washington Center
12:29PM 36.7592 -79.3278 216° Southwest 331 381 34,000  Level Washington Center
12:31PM 36.6150 -79.4558 216° Southwest 336 387 34,000  Level Atlanta Center
12:32PM 36.5406 -79.5247 217° Southwest 336 387 34,000  Level Atlanta Center
12:33PM 36.4636 -79.5936 216° Southwest 336 387 34,000  Level Atlanta Center
12:34PM 36.3972 -79.6564 217° Southwest 341 392 34,000  Level Atlanta Center
12:35PM 36.3225 -79.7250 217° Southwest 341 392 34,000  Level Atlanta Center
12:36PM 36.2478 -79.7933 216° Southwest 341 392 34,000  Level Atlanta Center
12:37PM 36.1686 -79.8592 214° Southwest 341 392 34,000  Level Atlanta Center
12:38PM 36.0917 -79.9275 216° Southwest 346 398 34,000  Level Atlanta Center
12:39PM 36.0019 -79.9936 211° Southwest 346 398 34,000  Level Atlanta Center
12:40PM 35.9119 -80.0417 203° Southwest 351 404 34,000  Level Atlanta Center
12:41PM 35.8194 -80.0872 202° Southwest 356 410 34,000  Level Atlanta Center
12:42PM 35.7272 -80.1353 203° Southwest 361 415 34,000  Level Atlanta Center
12:43PM 35.6347 -80.1831 203° Southwest 361 415 34,000  Level Atlanta Center
12:44PM 35.5422 -80.2308 203° Southwest 367 422 34,000  Level Atlanta Center
12:45PM 35.4497 -80.2758 202° Southwest 367 422 34,000  Level Atlanta Center
12:46PM 35.3575 -80.3233 203° Southwest 367 422 34,000  Level Atlanta Center
12:47PM 35.2692 -80.3681 202° Southwest 367 422 34,000  Level Atlanta Center
12:48PM 35.1786 -80.4103 201° Southwest 362 417 34,000  Level Atlanta Center
12:50PM 34.9861 -80.5058 202° Southwest 354 407 34,000  Level Jacksonville Center
12:51PM 34.8933 -80.5514 202° Southwest 354 407 34,000  Level Jacksonville Center
12:52PM 34.8106 -80.5892 201° Southwest 359 413 34,000  Level Jacksonville Center
12:53PM 34.7175 -80.6344 202° Southwest 354 407 34,000 480 Level Jacksonville Center
12:54PM 34.6081 -80.6928 204° Southwest 376 433 35,000 720 Climbing Jacksonville Center
12:55PM 34.5272 -80.7328 202° Southwest 379 436 35,500 480 Climbing Jacksonville Center
12:56PM 34.4342 -80.7778 202° Southwest 371 427 36,000 240 Climbing Jacksonville Center
12:57PM 34.3389 -80.8256 202° Southwest 372 428 36,000  Level Jacksonville Center
12:58PM 34.2542 -80.8628 200° South 359 413 36,000  Level Jacksonville Center
12:59PM 34.1589 -80.9075 201° Southwest 353 406 36,000  Level Jacksonville Center
01:00PM 34.0656 -80.9572 204° Southwest 353 406 36,000  Level Jacksonville Center
01:01PM 33.9744 -80.9994 201° Southwest 358 412 36,000  Level Jacksonville Center
01:02PM 33.8731 -81.0492 202° Southwest 358 412 36,000  Level Jacksonville Center
01:03PM 33.7819 -81.0936 202° Southwest 358 412 36,000  Level Jacksonville Center
01:04PM 33.7053 -81.1325 203° Southwest 350 403 36,000  Level Jacksonville Center
01:05PM 33.6119 -81.1792 203° Southwest 350 403 36,000  Level Jacksonville Center
01:06PM 33.5164 -81.2233 201° Southwest 356 410 36,000  Level Jacksonville Center
01:07PM 33.4253 -81.2700 203° Southwest 361 415 36,000  Level Jacksonville Center
01:08PM 33.3339 -81.3139 202° Southwest 361 415 36,000  Level Jacksonville Center
01:09PM 33.2428 -81.3603 203° Southwest 356 410 36,000  Level Jacksonville Center
01:10PM 33.1514 -81.4039 202° Southwest 356 410 36,000  Level Jacksonville Center
01:11PM 33.0600 -81.4500 203° Southwest 356 410 36,000  Level Jacksonville Center
01:12PM 32.9667 -81.4986 204° Southwest 362 417 36,000  Level Jacksonville Center
01:13PM 32.8733 -81.5419 201° Southwest 362 417 36,000  Level Jacksonville Center
01:14PM 32.7797 -81.5856 201° Southwest 362 417 36,000  Level Jacksonville Center
01:15PM 32.6781 -81.6364 203° Southwest 362 417 36,000  Level Jacksonville Center
01:16PM 32.5928 -81.6744 201° Southwest 362 417 36,000  Level Jacksonville Center
01:17PM 32.4889 -81.7128 197° South 367 422 36,000  Level Jacksonville Center
01:18PM 32.3867 -81.7364 191° South 372 428 36,000  Level Jacksonville Center
01:19PM 32.2972 -81.7572 191° South 377 434 36,000  Level Jacksonville Center
01:20PM 32.1847 -81.7831 191° South 372 428 36,000  Level Jacksonville Center
01:21PM 32.0950 -81.8039 191° South 372 428 36,000  Level Jacksonville Center
01:22PM 31.9803 -81.8272 190° South 372 428 36,000  Level Jacksonville Center
01:23PM 31.8783 -81.8503 191° South 372 428 36,000  Level Jacksonville Center
01:24PM 31.7867 -81.8733 192° South 372 428 36,000  Level Jacksonville Center
01:25PM 31.6742 -81.8989 191° South 378 435 36,000  Level Jacksonville Center
01:26PM 31.5822 -81.9172 190° South 373 429 36,000  Level Jacksonville Center
01:27PM 31.4678 -81.9450 192° South 380 437 36,000  Level Jacksonville Center
01:28PM 31.3656 -81.9681 191° South 380 437 36,000  Level Jacksonville Center
01:29PM 31.2633 -81.9933 192° South 380 437 36,000  Level Jacksonville Center
01:30PM 31.1592 -82.0136 189° South 375 432 36,000  Level Jacksonville Center
01:31PM 31.0569 -82.0389 192° South 375 432 36,000  Level Jacksonville Center
01:32PM 30.9550 -82.0592 190° South 375 432 36,000  Level Jacksonville Center
01:33PM 30.8528 -82.0819 191° South 375 432 36,000  Level Jacksonville Center
01:34PM 30.7506 -82.1044 191° South 375 432 36,000  Level Jacksonville Center
01:35PM 30.6442 -82.1297 192° South 375 432 36,000  Level Jacksonville Center
01:36PM 30.5419 -82.1522 191° South 375 432 36,000  Level Jacksonville Center
01:37PM 30.4503 -82.1697 189° South 370 426 36,000  Level Jacksonville Center
01:38PM 30.3481 -82.1922 191° South 375 432 36,000  Level Jacksonville Center
01:39PM 30.2417 -82.2169 191° South 380 437 36,000  Level Jacksonville Center
01:40PM 30.1353 -82.2369 189° South 380 437 36,000  Level Jacksonville Center
01:41PM 30.0333 -82.2592 191° South 380 437 36,000 -480 Level Jacksonville Center
01:42PM 29.9269 -82.2861 192° South 385 443 35,100 -2,040 Descending Jacksonville Center
01:43PM 29.8206 -82.3083 190° South 390 449 32,000 -2,760 Descending Jacksonville Center
01:44PM 29.7142 -82.3283 189° South 390 449 29,600 -2,400 Descending Jacksonville Center
01:45PM 29.6119 -82.3528 192° South 390 449 27,300 -1,800 Descending Jacksonville Center
01:46PM 29.5097 -82.3486 178° South 384 442 26,000 -1,800 Descending Jacksonville Center
01:47PM 29.4094 -82.3372 174° South 371 427 23,700 -2,040 Descending Jacksonville Center
01:48PM 29.3092 -82.3258 174° South 366 421 22,000 -1,380 Descending Jacksonville Center
01:49PM 29.2025 -82.3144 175° South 366 421 21,000 -1,080 Descending Jacksonville Center
01:50PM 29.0981 -82.3008 174° South 371 427 19,900 -1,440 Descending Jacksonville Center
01:51PM 29.0022 -82.2919 175° South 366 421 18,200 -1,740 Descending Jacksonville Center
01:52PM 28.8997 -82.2783 173° South 355 409 16,500 -1,860 Descending Jacksonville Center
01:53PM 28.8078 -82.2694 175° South 342 394 14,500 -1,740 Descending Jacksonville Center
01:55PM 28.6500 -82.2667 179° South 330 380 11,700 -1,260 Descending Tampa TRACON
01:56PM 28.5500 -82.2667 180° South 339 390 11,000 -360 Descending Tampa TRACON
01:57PM 28.4667 -82.2833 190° South 322 371 11,000 -60 Level Tampa TRACON
01:57PM 28.3833 -82.3167 199° South 312 359 10,900 -780 Descending Tampa TRACON
01:59PM 28.3000 -82.3333 190° South 282 325 9,500 -1,500 Descending Tampa TRACON
01:59PM 28.2333 -82.3500 192° South 285 328 8,000 -1,500 Descending Tampa TRACON
02:00PM 28.1500 -82.3667 190° South 275 316 6,700 -1,440 Descending Tampa TRACON
02:01PM 28.0833 -82.4000 204° Southwest 267 307 5,200 -900 Descending Tampa TRACON
02:02PM 28.0167 -82.4167 192° South 232 267 5,000 -300 Descending Tampa TRACON
02:03PM 27.9500 -82.4333 192° South 243 280 4,600 -900 Descending Tampa TRACON
02:05PM 27.8667 -82.4500 190° South 237 273 3,100 -960 Descending Tampa TRACON
02:06PM 27.8500 -82.5000 249° West 231 266 2,600 -480 Descending Tampa TRACON
02:07PM 27.8667 -82.5500 291° West 192 221 2,200 -780 Descending Tampa TRACON
02:08PM 27.9167 -82.5500 360° North 164 189 1,200 -1,020 Descending Tampa TRACON
02:09PM 27.9500 -82.5500 360° North 152 175 400 -840 Descending Tampa TRACON
02:11PM 27.9667 -82.5167 350° North  Level FlightAware Approximate
02:18PM 27.9755 -82.5332 350° North  Level Estimated